Main page
METAR-TAF:

METAR-TAF

Airports :

Mont-De-Marsan, France

latitude: 43-55N, longitude: 000-30W, elevation: 62 m

Current weather observation

The report was made 44 minutes ago, at 16:00 UTC
Wind 7 kt from the West/Northwest, varying between West and North
Temperature 24°C
Humidity 61%
Pressure 1016 hPa
Visibility 10 km or more
Scattered clouds at a height of 3600 ft
Broken clouds at a height of 4800 ft

METAR: LFBM 221600Z AUTO 30007KT 260V350 9999 SCT036 BKN048 24/16 Q1016

Time: 18:44 (16:44 UTC)

Forecast

The report was made 32 hours and 44 minutes ago, at 08:00 UTC
Forecast valid from 21 at 09 UTC to 22 at 09 UTC
Wind 3 kt from the North
Visibility 10 km or more
Overcast at a height of 4000 ft
Probability 30%
from 22 at 01 UTC to 22 at 07 UTC
Visibility: 2000 m
patches of fog

TAF: LFBM 210800Z 2109/2209 36003KT 9999 OVC040 PROB30 2201/2207 2000 BCFG

Weather observations and forecasts of more than 4000 airports (METAR and TAF reports).

The available stations are represented by yellow and red dots on the map.

Hover mouse over dot to see the name of the station.

Then click to see weather observations and forecasts.

To change the map : click on the green buttons with a black cross to zoom in, on the green button with a dash to zoom out, or on the green arrows for adjacent maps.


METAR-TAF: